Keesler Air Force Base
KBIX : now visible

Airfield :











YOU CAN JOIN US ON...

 
LOGIN :

Register | Disclaimer

   EN    FR    IT 

 









Legend :    VFR   Marginal VFR   IFR   Intensive IFR   Very Intensive IFR
Visi :
Ceiling :
>= 8 km
>= 3000ft
5 to 8 km
1000 to 3000 ft
1500m to 5 km
500 to 1000 ft
800 to 1500m
200 to 500 ft
< 800m
< 200 ft
Symbols :   Thunderstorms  Fog  Heavy snow  Heavy precipitations  Wind > 20 kt






- Airport Elevation : 33 ft


KBIX - Keesler Air Force Base

CURRENT METAR :
  • 282156Z AUTO 15004KT 10SM CLR 17/09 A2999 RMK AO2 SLP159 T01660088

EXPIRED METARs :
  • 282056Z AUTO 15007KT 10SM CLR 17/09 A3000 RMK AO2 SLP162 T01680092 58014
  • 281956Z AUTO 13006KT 10SM CLR 17/09 A3001 RMK AO2 SLP165 T01690093

TAF TAF KBIX
Valid from the 28 at 18:00 until the 30 at 00:00 UTC


281800Z 2818/2924 10006KT 9999 SCT250 QNH2997INS
BECMG 2902/2903 11006KT 9999 SCT120 QNH2995INS
BECMG 2911/2912 12012KT 9999 VCSH SCT015 BKN025 QNH2986INS
BECMG 2914/2915 15012KT 8000 -SHRA OVC004 QNH2981INS
TEMPO 2918/2922 4800 -TSRA OVC004CB
BECMG 2923/2924 07009KT 8000 BR OVC003 QNH2989INS TX17/2821Z TN11/2911Z



MET'MAP, your aeronautical weather chart ! - Copyright ORBIFLY December 2007 - Disclaimer

ORBIFLY MET'MAP TEAM :

Programming & Development : Alexandra Zaïnal
Concept & original design : Baudouin d'Aumeries
Assistance for programming : Marc-Olivier Méhu
Technical & hardware support : Manuel Goepfert

Contact : metmap@orbifly.com




SOURCES & CREDITS :

   NOAA       Earth
Advisory